Latest Weather Observations for Munglinup West

IDW60801

Issued at 9:05 pm WST Friday 18 April 2014 (issued every 30 minutes, with the page automatically refreshed every 10 minutes)

About weather observations | Map of weather stations | Latest weather observations for WA | Other Formats
Station Details ID: 012044 Name: MUNGLINUP WEST Lat: -33.55 Lon: 120.70 Height: 220.0 m
Data from the previous 72 hours. | See also: Recent months at Munglinup West
Date/Time
WST
Temp
°C
App
Temp
°C
Dew
Point
Rel
Hum
%
Delta-T
°C
Wind Press
QNH
hPa
Press
MSL
hPa
Rain
since 9 am
mm
Dir
 
Spd
km/h
Gust
km/h
Spd
kts
Gust
kts
18/09:00pm 14.8 11.6 11.2 79 1.9 E 19 24 10 13 1020.2 1019.6 0.0
18/08:30pm 15.0 11.6 11.2 78 2.0 E 20 28 11 15 1020.2 - 0.0
18/08:00pm 15.3 11.9 11.3 77 2.2 E 20 30 11 16 1020.4 1019.8 0.0
18/07:30pm 15.6 12.2 11.4 76 2.3 E 20 28 11 15 1020.3 - 0.0
18/07:00pm 15.9 12.8 11.7 76 2.3 E 19 26 10 14 1020.3 1019.7 0.0
18/06:30pm 16.2 12.6 11.8 75 2.4 E 22 30 12 16 1020.1 - 0.0
18/06:00pm 16.7 13.1 12.0 74 2.6 E 22 30 12 16 1020.0 1019.4 0.0
18/05:30pm 17.4 13.6 12.3 72 2.8 ESE 24 33 13 18 1019.8 - 0.0
18/05:00pm 18.8 15.4 12.5 67 3.5 ESE 22 33 12 18 1019.9 1019.3 0.0
18/04:30pm 20.8 17.4 12.5 59 4.7 SE 22 28 12 15 1019.6 - 0.0
18/04:00pm 25.2 23.2 11.4 42 7.9 E 13 22 7 12 1019.5 1019.0 0.0
18/03:30pm 24.4 22.3 11.0 43 7.6 ENE 13 20 7 11 1019.8 - 0.0
18/03:00pm 25.3 23.6 11.1 41 8.1 ENE 11 22 6 12 1019.9 1019.3 0.0
18/02:30pm 24.4 21.8 10.7 42 7.7 ENE 15 24 8 13 1020.2 - 0.0
18/02:00pm 24.7 22.9 10.9 42 7.8 NNE 11 26 6 14 1020.6 1020.0 0.0
18/01:30pm 24.6 22.9 11.2 43 7.6 ENE 11 22 6 12 1020.9 - 0.0
18/01:00pm 23.3 21.5 11.0 46 6.9 NE 11 22 6 12 1021.4 1020.8 0.0
18/12:30pm 23.0 21.3 11.1 47 6.7 NNE 11 22 6 12 1022.1 - 0.0
18/12:00pm 22.0 20.7 11.4 51 5.9 ENE 9 20 5 11 1022.7 1022.2 0.0
18/11:30am 21.1 19.8 11.4 54 5.4 NNE 9 15 5 8 1023.5 - 0.0
18/11:00am 21.2 19.3 11.8 55 5.3 ENE 13 20 7 11 1023.9 1023.4 0.0
18/10:30am 21.2 18.9 11.8 55 5.3 NE 15 22 8 12 1024.2 - 0.0
18/10:00am 20.2 17.7 12.4 61 4.4 NE 17 24 9 13 1024.6 1024.0 0.0
18/09:30am 18.9 16.6 12.9 68 3.4 NE 17 26 9 14 1025.0 - 0.0
18/09:00am 18.0 15.6 13.7 76 2.5 NE 19 26 10 14 1025.2 1024.6 0.0
18/08:30am 15.9 14.4 14.3 90 0.9 NNE 15 22 8 12 1025.4 - 0.0
18/08:00am 14.8 13.4 14.6 99 0.1 NNE 15 22 8 12 1025.5 1024.9 0.0
18/07:30am 14.1 13.3 14.1 100 0.0 NE 11 17 6 9 1025.4 - 0.0
18/07:00am 13.5 12.5 13.5 100 0.0 NNE 11 15 6 8 1025.2 1024.6 0.0
18/06:30am 13.5 12.9 13.5 100 0.0 NNE 9 13 5 7 1025.2 - 0.0
18/06:00am 13.6 12.7 13.6 100 0.0 NE 11 19 6 10 1025.0 1024.4 0.0
18/05:30am 13.6 13.4 13.6 100 0.0 NNE 7 9 4 5 1025.0 - 0.0
18/05:00am 13.1 12.7 13.1 100 0.0 NNE 7 11 4 6 1024.8 1024.2 0.0
18/04:30am 12.5 11.1 12.3 99 0.1 NE 11 13 6 7 1024.6 - 0.0
18/04:00am 12.8 12.3 12.6 99 0.1 ENE 7 9 4 5 1024.5 1023.9 0.0
18/03:30am 13.0 12.5 12.8 99 0.1 ENE 7 9 4 5 1024.2 - 0.0
18/03:00am 13.1 12.9 13.1 100 0.0 ENE 6 7 3 4 1024.2 1023.7 0.0
18/02:30am 12.9 12.5 12.9 100 0.0 ENE 7 9 4 5 1024.3 - 0.0
18/02:00am 12.0 10.9 11.8 99 0.1 E 9 11 5 6 1024.3 1023.8 0.0
18/01:30am 12.5 11.5 12.3 99 0.1 E 9 11 5 6 1024.3 - 0.0
18/01:00am 13.2 12.4 13.0 99 0.1 E 9 11 5 6 1024.6 1024.0 0.0
18/12:30am 12.9 12.0 12.6 98 0.2 ESE 9 11 5 6 1024.5 - 0.0
18/12:00am 13.2 12.4 12.9 98 0.2 E 9 13 5 7 1024.2 1023.7 0.0
 
Date/Time
WST
Temp
°C
App
Temp
°C
Dew
Point
Rel
Hum
%
Delta-T
°C
Wind Press
QNH
hPa
Press
MSL
hPa
Rain
since 9 am
mm
Dir
 
Spd
km/h
Gust
km/h
Spd
kts
Gust
kts
17/11:30pm 13.7 12.6 13.2 97 0.3 ESE 11 15 6 8 1024.2 - 0.0
17/11:00pm 14.1 13.1 13.5 96 0.3 ESE 11 15 6 8 1024.3 1023.8 0.0
17/10:30pm 14.5 13.3 13.9 96 0.3 SE 13 15 7 8 1024.5 - 0.0
17/10:00pm 15.1 14.0 14.3 95 0.5 SE 13 19 7 10 1024.5 1023.9 0.0
17/09:30pm 14.0 13.3 13.1 94 0.5 SE 9 11 5 6 1024.3 - 0.0
17/09:00pm 14.1 13.3 13.0 93 0.6 SE 9 11 5 6 1024.1 1023.6 0.0
17/08:30pm 14.8 14.2 13.5 92 0.7 SSE 9 11 5 6 1024.2 - 0.0
17/08:00pm 14.1 13.3 12.8 92 0.7 SSE 9 11 5 6 1023.9 1023.4 0.0
17/07:30pm 14.4 13.5 12.6 89 1.0 SE 9 11 5 6 1023.7 - 0.0
17/07:00pm 15.2 14.4 12.9 86 1.3 SSE 9 11 5 6 1023.4 1022.9 0.0
17/06:30pm 15.6 15.0 12.2 80 1.9 S 7 9 4 5 1023.2 - 0.0
17/06:00pm 16.8 15.4 12.3 75 2.5 S 11 17 6 9 1022.8 1022.3 0.0
17/05:30pm 17.8 15.7 12.5 71 3.0 S 15 24 8 13 1022.4 - 0.0
17/05:00pm 19.1 16.3 12.6 66 3.7 S 19 24 10 13 1022.0 1021.5 0.0
17/04:30pm 20.0 16.8 12.0 60 4.5 S 20 30 11 16 1021.7 - 0.0
17/04:00pm 21.1 17.5 12.0 56 5.1 SSW 22 28 12 15 1021.4 1020.8 0.0
17/03:30pm 22.3 19.3 12.5 53 5.6 S 20 32 11 17 1021.1 - 0.0
17/03:00pm 22.5 18.2 12.2 52 5.9 SSW 26 33 14 18 1020.9 1020.3 0.0
17/02:30pm 23.8 20.5 10.8 44 7.3 SSW 19 30 10 16 1020.7 - 0.0
17/02:00pm 23.9 20.4 10.2 42 7.6 SSW 19 28 10 15 1020.4 1019.8 0.0
17/01:30pm 23.0 18.8 11.1 47 6.7 SSW 24 33 13 18 1020.5 - 0.0
17/01:00pm 22.8 17.5 11.2 48 6.5 SSW 30 37 16 20 1020.4 1019.8 0.0
17/12:30pm 23.7 20.0 11.4 46 7.0 W 22 33 12 18 1020.5 - 0.0
17/12:00pm 22.7 19.5 12.0 50 6.1 WSW 20 32 11 17 1020.8 1020.2 0.0
17/11:30am 22.5 19.4 11.6 50 6.2 WSW 19 30 10 16 1021.1 - 0.0
17/11:00am 21.5 19.8 12.6 57 5.1 W 13 20 7 11 1021.3 1020.7 0.0
17/10:30am 20.0 18.7 12.5 62 4.3 WSW 11 19 6 10 1021.5 - 0.0
17/10:00am 18.9 17.1 13.3 70 3.2 SW 15 22 8 12 1021.5 1020.9 0.0
17/09:30am 18.3 16.3 13.8 75 2.6 WSW 17 20 9 11 1021.4 - 0.0
17/09:00am 17.3 16.8 14.8 85 1.5 SW 11 19 6 10 1021.3 1020.7 0.0
17/08:30am 14.8 15.0 14.8 100 0.0 WSW 7 9 4 5 1021.2 - 0.0
17/08:00am 12.7 12.4 12.7 100 0.0 W 6 7 3 4 1021.0 1020.4 0.0
17/07:30am 11.0 11.0 11.0 100 0.0 NW 2 4 1 2 1020.7 - 0.0
17/07:00am 9.4 8.5 9.4 100 0.0 NNW 4 6 2 3 1020.4 1019.8 0.0
17/06:30am 9.2 8.3 9.2 100 0.0 W 4 6 2 3 1020.0 - 0.0
17/06:00am 9.0 7.6 8.9 99 0.0 W 6 7 3 4 1019.8 1019.2 0.0
17/05:30am 9.1 7.7 9.0 99 0.0 W 6 7 3 4 1019.5 - 0.0
17/05:00am 9.1 8.9 9.0 99 0.0 CALM 0 2 0 1 1019.2 1018.7 0.0
17/04:30am 9.7 9.6 9.4 98 0.2 CALM 0 4 0 2 1019.0 - 0.0
17/04:00am 10.1 9.3 9.8 98 0.2 SW 4 6 2 3 1019.2 1018.7 0.0
17/03:30am 10.3 9.2 9.8 97 0.3 SW 6 7 3 4 1019.3 - 0.0
17/03:00am 10.2 9.0 9.4 95 0.4 WSW 6 7 3 4 1019.2 1018.7 0.0
17/02:30am 10.4 9.6 9.5 94 0.5 ESE 4 7 2 4 1019.0 - 0.0
17/02:00am 11.6 10.5 10.8 95 0.4 E 7 9 4 5 1019.0 1018.5 0.0
17/01:30am 11.1 9.9 10.3 95 0.4 ESE 7 7 4 4 1019.2 - 0.0
17/01:00am 11.1 10.8 10.2 94 0.5 SSE 2 4 1 2 1019.3 1018.8 0.0
17/12:30am 12.3 11.0 11.2 93 0.6 ENE 9 9 5 5 1019.2 - 0.0
17/12:00am 12.4 11.5 11.3 93 0.6 ENE 7 9 4 5 1019.3 1018.8 0.0
 
Date/Time
WST
Temp
°C
App
Temp
°C
Dew
Point
Rel
Hum
%
Delta-T
°C
Wind Press
QNH
hPa
Press
MSL
hPa
Rain
since 9 am
mm
Dir
 
Spd
km/h
Gust
km/h
Spd
kts
Gust
kts
16/11:30pm 12.6 11.4 11.5 93 0.6 ENE 9 11 5 6 1019.4 - 0.0
16/11:00pm 12.7 11.4 11.4 92 0.7 ENE 9 11 5 6 1019.6 1019.1 0.0
16/10:30pm 13.3 11.5 12.0 92 0.7 ENE 13 15 7 8 1019.8 - 0.0
16/10:00pm 13.4 11.6 12.1 92 0.7 ENE 13 17 7 9 1020.1 1019.5 0.0
16/09:30pm 13.3 11.5 12.0 92 0.7 E 13 15 7 8 1020.1 - 0.0
16/09:00pm 13.0 11.7 11.4 90 0.9 E 9 11 5 6 1020.1 1019.5 0.0
16/08:30pm 13.8 12.8 12.2 90 0.9 E 9 9 5 5 1020.4 - 0.0
16/08:00pm 13.8 13.1 12.0 89 1.0 ESE 7 9 4 5 1020.3 1019.7 0.0
16/07:30pm 14.3 13.3 12.2 87 1.2 ESE 9 11 5 6 1020.1 - 0.0
16/07:00pm 14.8 13.4 12.3 85 1.4 SE 11 13 6 7 1020.0 1019.4 0.0
16/06:30pm 15.5 14.1 12.3 81 1.8 SE 11 13 6 7 1019.9 - 0.0
16/06:00pm 16.7 15.0 12.5 76 2.3 SE 13 19 7 10 1019.6 1019.1 0.0
16/05:30pm 17.9 16.0 13.0 73 2.8 SSE 15 20 8 11 1019.5 - 0.0
16/05:00pm 19.3 16.6 13.0 67 3.6 SE 19 24 10 13 1019.5 1019.0 0.0
16/04:30pm 20.5 18.3 13.2 63 4.2 SSE 17 26 9 14 1019.4 - 0.0
16/04:00pm 21.8 19.1 12.9 57 5.1 SSE 19 26 10 14 1019.4 1018.9 0.0
16/03:30pm 24.6 22.5 9.7 39 8.2 W 11 19 6 10 1019.3 - 0.0
16/03:00pm 24.3 22.0 10.6 42 7.7 W 13 20 7 11 1019.8 1019.2 0.0
16/02:30pm 23.1 22.3 10.9 46 6.8 W 6 17 3 9 1020.0 - 0.0
16/02:00pm 24.6 22.8 10.8 42 7.8 NW 11 19 6 10 1020.0 1019.4 0.0
16/01:30pm 23.4 22.3 11.8 48 6.6 NW 9 19 5 10 1020.4 - 0.0
16/01:00pm 22.8 21.7 12.1 51 6.1 WNW 9 17 5 9 1020.7 1020.1 0.0
16/12:30pm 22.9 22.1 12.8 53 5.8 NW 9 15 5 8 1021.3 - 0.0
16/12:00pm 21.7 20.8 12.5 56 5.2 NW 9 15 5 8 1021.9 1021.4 0.0
16/11:30am 20.1 19.3 11.8 59 4.7 W 7 13 4 7 1022.6 - 0.0
16/11:00am 19.9 19.9 13.6 67 3.6 WNW 6 11 3 6 1022.9 1022.4 0.0
16/10:30am 19.7 20.1 13.6 68 3.5 WSW 4 9 2 5 1023.0 - 0.0
16/10:00am 18.4 18.9 13.9 75 2.6 SE 4 6 2 3 1023.4 1022.9 0.0
16/09:30am 17.8 18.6 14.7 82 1.8 W 4 7 2 4 1023.5 - 0.0
16/09:00am 17.4 19.4 16.1 92 0.8 CALM 0 6 0 3 1023.6 1023.1 0.8
16/08:30am 16.3 18.2 15.8 97 0.3 CALM 0 0 0 0 1023.7 - 0.8
16/08:00am 15.9 16.5 15.7 99 0.1 SSW 7 9 4 5 1023.6 1023.1 0.8
16/07:30am 15.8 17.7 15.8 100 0.0 CALM 0 0 0 0 1023.2 - 0.8
16/07:00am 15.7 17.6 15.7 100 0.0 CALM 0 0 0 0 1023.0 1022.5 0.8
16/06:30am 15.5 17.3 15.5 100 0.0 CALM 0 0 0 0 1022.6 - 0.8
16/06:00am 15.5 17.3 15.5 100 0.0 CALM 0 0 0 0 1022.4 1021.9 0.8
16/05:30am 15.4 17.2 15.4 100 0.0 CALM 0 2 0 1 1022.3 - 0.8
16/05:00am 15.6 16.3 15.6 100 0.0 SW 6 7 3 4 1022.2 1021.7 0.6
16/04:30am 15.7 16.3 15.7 100 0.0 SW 7 11 4 6 1022.1 - 0.6
16/04:00am 15.7 16.4 15.7 100 0.0 SSW 6 7 3 4 1021.9 1021.4 0.6
16/03:30am 15.7 16.4 15.7 100 0.0 SSW 6 7 3 4 1021.7 - 0.6
16/03:00am 15.9 17.1 15.9 100 0.0 SSW 4 7 2 4 1021.6 1021.0 0.6
16/02:30am 15.9 16.7 15.9 100 0.0 SSW 6 7 3 4 1021.6 - 0.6
16/02:00am 15.9 17.1 15.9 100 0.0 S 4 6 2 3 1021.8 1021.3 0.6
16/01:30am 16.0 16.3 16.0 100 0.0 S 9 13 5 7 1022.1 - 0.6
16/01:00am 16.0 15.5 16.0 100 0.0 SSW 13 17 7 9 1022.2 1021.7 0.6
16/12:30am 16.3 15.9 16.3 100 0.0 SSW 13 19 7 10 1022.2 - 0.4
16/12:00am 16.4 15.7 16.4 100 0.0 SSW 15 20 8 11 1022.1 1021.6 0.4
 
Date/Time
WST
Temp
°C
App
Temp
°C
Dew
Point
Rel
Hum
%
Delta-T
°C
Wind Press
QNH
hPa
Press
MSL
hPa
Rain
since 9 am
mm
Dir
 
Spd
km/h
Gust
km/h
Spd
kts
Gust
kts
15/11:30pm 16.1 16.0 16.1 100 0.0 S 11 15 6 8 1022.0 - 0.2
15/11:00pm 16.0 14.8 16.0 100 0.0 SSW 17 22 9 12 1022.1 1021.6 0.0
15/10:30pm 14.8 15.1 14.5 98 0.2 WSW 6 6 3 3 1022.1 - 0.0
15/10:00pm 14.9 15.6 14.4 97 0.3 W 4 4 2 2 1022.1 1021.6 0.0
15/09:30pm 15.3 16.9 14.8 97 0.3 CALM 0 0 0 0 1022.0 - 0.0

Other Formats:

Comma delimited format used in spreadsheet applications
http://www.bom.gov.au/fwo/IDW60801/IDW60801.95644.axf

JavaScript Object Notation format (JSON) in row-major order
http://www.bom.gov.au/fwo/IDW60801/IDW60801.95644.json